createdAt,value
2023-01-08T00:02:27.798Z,0.90
2023-01-08T00:07:35.067Z,0.90
2023-01-08T00:12:42.142Z,1.10
2023-01-08T00:17:49.179Z,0.97
2023-01-08T00:22:56.122Z,0.87
2023-01-08T00:28:03.120Z,0.80
2023-01-08T00:33:11.186Z,1.00
2023-01-08T00:38:18.380Z,1.00
2023-01-08T00:43:25.248Z,0.93
2023-01-08T00:48:33.876Z,1.00
2023-01-08T00:53:40.698Z,1.00
2023-01-08T00:58:47.678Z,1.00
2023-01-08T01:03:54.671Z,1.10
2023-01-08T01:09:02.169Z,0.93
2023-01-08T01:14:10.668Z,1.07
2023-01-08T01:19:19.927Z,1.10
2023-01-08T01:24:28.344Z,1.10
2023-01-08T01:29:35.378Z,0.90
2023-01-08T01:34:42.394Z,0.90
2023-01-08T01:39:49.728Z,0.80
2023-01-08T01:44:56.949Z,1.10
2023-01-08T01:50:07.529Z,0.90
2023-01-08T01:55:16.604Z,0.97
2023-01-08T02:00:24.047Z,0.97
2023-01-08T02:05:35.472Z,0.80
2023-01-08T02:10:44.030Z,0.87
2023-01-08T02:15:54.085Z,0.80
2023-01-08T02:21:03.988Z,0.70
2023-01-08T02:26:12.458Z,0.70
2023-01-08T02:31:21.385Z,0.90
2023-01-08T02:36:29.478Z,0.90
2023-01-08T02:41:39.396Z,0.90
2023-01-08T02:46:47.147Z,0.80
2023-01-08T02:51:57.318Z,1.07
2023-01-08T02:57:07.224Z,0.90
2023-01-08T03:02:15.891Z,0.97
2023-01-08T03:07:23.109Z,0.90
2023-01-08T03:12:33.631Z,0.87
2023-01-08T03:17:43.899Z,0.80
2023-01-08T03:22:54.118Z,1.00
2023-01-08T03:28:03.946Z,0.90
2023-01-08T03:33:13.892Z,0.83
2023-01-08T03:38:23.802Z,0.83
2023-01-08T03:43:31.174Z,1.03
2023-01-08T03:48:39.272Z,1.10
2023-01-08T03:53:47.832Z,1.00
2023-01-08T03:58:54.865Z,1.07
2023-01-08T04:04:01.879Z,0.90
2023-01-08T04:09:09.077Z,0.90
2023-01-08T04:14:16.638Z,0.90
2023-01-08T04:19:23.740Z,0.90
2023-01-08T04:24:30.587Z,1.03
2023-01-08T04:29:38.211Z,1.10
2023-01-08T04:34:45.488Z,1.00
2023-01-08T04:39:52.588Z,1.10
2023-01-08T04:44:59.695Z,1.03
2023-01-08T04:50:07.215Z,1.10
2023-01-08T04:55:14.057Z,1.00
2023-01-08T05:00:21.308Z,1.07
2023-01-08T05:05:28.958Z,0.90
2023-01-08T05:10:35.831Z,0.70
2023-01-08T05:15:42.943Z,0.70
2023-01-08T05:20:50.304Z,0.70
2023-01-08T05:25:59.086Z,0.70
2023-01-08T05:31:06.264Z,0.77
2023-01-08T05:36:14.594Z,0.77
2023-01-08T05:41:22.602Z,0.80
2023-01-08T05:46:32.784Z,0.80
2023-01-08T05:51:40.201Z,0.80
2023-01-08T05:56:47.643Z,0.67
2023-01-08T06:01:54.616Z,0.70
2023-01-08T06:07:01.968Z,0.83
2023-01-08T06:12:09.007Z,0.90
2023-01-08T06:17:16.588Z,0.70
2023-01-08T06:22:23.721Z,0.87
2023-01-08T06:27:31.043Z,0.83
2023-01-08T06:32:38.216Z,0.70
2023-01-08T06:37:45.248Z,0.80
2023-01-08T06:42:52.277Z,0.90
2023-01-08T06:48:02.361Z,0.90
2023-01-08T06:53:10.471Z,0.80
2023-01-08T06:58:17.365Z,0.60
2023-01-08T07:03:24.631Z,0.70
2023-01-08T07:08:31.659Z,0.90
2023-01-08T07:13:38.605Z,0.70
2023-01-08T07:18:45.895Z,0.93
2023-01-08T07:23:52.997Z,0.70
2023-01-08T07:29:00.052Z,0.60
2023-01-08T07:34:07.405Z,0.70
2023-01-08T07:39:14.272Z,0.73
2023-01-08T07:44:21.473Z,0.77
2023-01-08T07:49:28.381Z,0.90
2023-01-08T07:54:35.262Z,0.60
2023-01-08T07:59:42.121Z,0.70
2023-01-08T08:04:49.196Z,0.80
2023-01-08T08:09:56.559Z,0.60
2023-01-08T08:15:03.532Z,0.67
2023-01-08T08:20:10.986Z,0.60
2023-01-08T08:25:18.200Z,0.70
2023-01-08T08:30:25.561Z,1.00
2023-01-08T08:35:33.796Z,0.50
2023-01-08T08:40:40.694Z,0.57
2023-01-08T08:45:47.803Z,0.63
2023-01-08T08:50:54.756Z,0.70
2023-01-08T08:56:01.676Z,0.60
2023-01-08T09:01:08.970Z,0.50
2023-01-08T09:06:16.580Z,0.50
2023-01-08T09:11:23.397Z,0.50
2023-01-08T09:16:30.415Z,0.70
2023-01-08T09:21:38.120Z,0.60
2023-01-08T09:26:45.250Z,0.63
2023-01-08T09:31:52.914Z,0.60
2023-01-08T09:37:00.062Z,0.70
2023-01-08T09:42:08.135Z,0.50
2023-01-08T09:47:17.909Z,0.50
2023-01-08T09:52:24.776Z,0.40
2023-01-08T09:57:32.141Z,0.50
2023-01-08T10:02:40.960Z,0.40
2023-01-08T10:07:48.795Z,0.57
2023-01-08T10:13:00.253Z,0.40
2023-01-08T10:18:13.931Z,0.50
2023-01-08T10:23:27.705Z,0.60
2023-01-08T10:28:38.227Z,0.50
2023-01-08T10:33:50.566Z,0.60
2023-01-08T10:39:13.173Z,0.50
2023-01-08T10:44:31.366Z,0.43
2023-01-08T10:49:44.807Z,0.40
2023-01-08T10:54:56.915Z,0.70
2023-01-08T11:00:23.181Z,0.50
2023-01-08T11:05:38.193Z,1.73
2023-01-08T11:10:50.103Z,1.57
2023-01-08T11:16:06.559Z,1.10
2023-01-08T11:21:18.487Z,1.03
2023-01-08T11:26:31.531Z,0.80
2023-01-08T11:31:44.871Z,0.60
2023-01-08T11:36:58.164Z,0.60
2023-01-08T11:42:09.895Z,0.60
2023-01-08T11:47:21.679Z,0.50
2023-01-08T11:52:32.658Z,0.70
2023-01-08T11:57:40.393Z,0.70
2023-01-08T12:02:51.442Z,0.70
2023-01-08T12:08:02.465Z,0.70
2023-01-08T12:13:10.187Z,0.60
2023-01-08T12:18:21.421Z,0.70
2023-01-08T12:23:30.858Z,0.90
2023-01-08T12:28:46.343Z,0.80
2023-01-08T12:34:01.324Z,0.53
2023-01-08T12:39:12.667Z,0.80
2023-01-08T12:44:23.907Z,0.70
2023-01-08T12:49:34.563Z,0.70
2023-01-08T12:54:45.279Z,0.53
2023-01-08T12:59:57.973Z,0.70
2023-01-08T13:05:10.628Z,0.70
2023-01-08T13:10:28.507Z,0.50
2023-01-08T13:15:41.675Z,0.43
2023-01-08T13:20:54.378Z,0.50
2023-01-08T13:26:07.960Z,0.50
2023-01-08T13:31:20.358Z,0.60
2023-01-08T13:36:31.111Z,0.50
2023-01-08T13:41:43.051Z,0.40
2023-01-08T13:46:56.331Z,0.47
2023-01-08T13:52:06.012Z,0.50
2023-01-08T13:57:16.169Z,0.70
2023-01-08T14:02:26.410Z,0.60
2023-01-08T14:07:39.102Z,0.40
2023-01-08T14:12:48.610Z,0.50
2023-01-08T14:18:00.663Z,0.60
2023-01-08T14:23:15.517Z,0.50
2023-01-08T14:28:25.290Z,0.40
2023-01-08T14:33:35.805Z,0.47
2023-01-08T14:38:59.242Z,0.40
2023-01-08T14:44:25.978Z,0.50
2023-01-08T14:49:36.337Z,0.80
2023-01-08T14:54:56.806Z,0.50
2023-01-08T15:00:15.311Z,0.90
2023-01-08T15:05:24.659Z,1.80
2023-01-08T15:10:36.375Z,1.60
2023-01-08T15:15:48.200Z,1.43
2023-01-08T15:20:58.931Z,0.90
2023-01-08T15:26:09.493Z,1.30
2023-01-08T15:31:21.017Z,1.30
2023-01-08T15:36:30.512Z,0.67
2023-01-08T15:41:42.202Z,0.60
2023-01-08T15:46:51.177Z,0.60
2023-01-08T15:52:01.069Z,0.70
2023-01-08T15:57:10.034Z,0.47
2023-01-08T16:02:18.182Z,0.60
2023-01-08T16:07:25.466Z,0.40
2023-01-08T16:12:34.935Z,0.67
2023-01-08T16:17:43.411Z,0.70
2023-01-08T16:22:53.464Z,0.40
2023-01-08T16:28:02.630Z,0.33
2023-01-08T16:33:11.979Z,0.40
2023-01-08T16:38:21.637Z,0.40
2023-01-08T16:43:35.388Z,0.50
2023-01-08T16:48:47.523Z,0.50
2023-01-08T16:53:56.309Z,0.40
2023-01-08T16:59:14.914Z,0.40
2023-01-08T17:04:14.954Z,0.50
2023-01-08T17:09:23.770Z,0.40
2023-01-08T17:14:31.631Z,0.40
2023-01-08T17:19:39.618Z,0.37
2023-01-08T17:24:49.745Z,0.50
2023-01-08T17:30:03.925Z,0.40
2023-01-08T17:35:15.384Z,0.50
2023-01-08T17:40:25.051Z,0.40
2023-01-08T17:45:34.041Z,0.40
2023-01-08T17:50:42.572Z,0.43
2023-01-08T17:55:51.108Z,0.40
2023-01-08T18:01:01.783Z,0.53
2023-01-08T18:06:11.857Z,0.40
2023-01-08T18:11:19.631Z,0.50
2023-01-08T18:16:28.309Z,0.60
2023-01-08T18:21:40.325Z,0.50
2023-01-08T18:26:54.607Z,0.50
2023-01-08T18:32:03.405Z,0.50
2023-01-08T18:37:14.646Z,0.50
2023-01-08T18:42:26.484Z,0.53
2023-01-08T18:47:34.139Z,0.40
2023-01-08T18:52:42.755Z,0.50
2023-01-08T18:57:51.396Z,0.70
2023-01-08T19:02:59.337Z,0.50
2023-01-08T19:08:07.603Z,0.60
2023-01-08T19:13:16.070Z,0.47
2023-01-08T19:18:26.322Z,0.50
2023-01-08T19:23:35.340Z,0.60
2023-01-08T19:28:44.423Z,0.50
2023-01-08T19:33:53.474Z,0.60
2023-01-08T19:39:02.343Z,0.50
2023-01-08T19:44:11.461Z,0.50
2023-01-08T19:49:20.336Z,0.60
2023-01-08T19:54:30.834Z,0.50
2023-01-08T19:59:39.497Z,0.60
2023-01-08T20:04:58.528Z,0.50
2023-01-08T20:10:11.276Z,0.50
2023-01-08T20:15:19.428Z,0.47
2023-01-08T20:20:26.468Z,0.60
2023-01-08T20:25:43.655Z,0.67
2023-01-08T20:30:52.213Z,0.50
2023-01-08T20:36:01.155Z,0.60
2023-01-08T20:41:09.960Z,0.60
2023-01-08T20:46:19.025Z,0.60
2023-01-08T20:51:29.732Z,0.60
2023-01-08T20:56:44.308Z,0.50
2023-01-08T21:01:53.594Z,0.60
2023-01-08T21:07:01.567Z,0.60
2023-01-08T21:12:09.675Z,0.63
2023-01-08T21:17:20.619Z,0.80
2023-01-08T21:22:29.062Z,0.80
2023-01-08T21:27:40.677Z,0.77
2023-01-08T21:32:50.276Z,0.73
2023-01-08T21:37:59.781Z,0.80
2023-01-08T21:43:09.646Z,0.90
2023-01-08T21:48:21.808Z,0.60
2023-01-08T21:53:36.205Z,0.70
2023-01-08T21:58:43.579Z,0.77
2023-01-08T22:03:51.860Z,0.70
2023-01-08T22:09:00.882Z,0.80
2023-01-08T22:14:09.657Z,0.80
2023-01-08T22:19:18.719Z,0.73
2023-01-08T22:24:28.439Z,0.90
2023-01-08T22:29:38.005Z,1.07
2023-01-08T22:34:47.644Z,0.80
2023-01-08T22:39:57.634Z,0.90
2023-01-08T22:45:08.478Z,0.80
2023-01-08T22:50:18.299Z,0.80
2023-01-08T22:55:26.489Z,0.80
2023-01-08T23:00:34.554Z,0.90
2023-01-08T23:05:43.051Z,0.90
2023-01-08T23:10:58.011Z,0.80
2023-01-08T23:16:10.197Z,0.90
2023-01-08T23:21:21.555Z,0.70
2023-01-08T23:26:31.128Z,0.83
2023-01-08T23:31:39.032Z,0.70
2023-01-08T23:36:47.181Z,0.80
2023-01-08T23:41:55.304Z,0.80
2023-01-08T23:47:03.145Z,1.00
2023-01-08T23:52:10.398Z,0.90
2023-01-08T23:57:21.096Z,0.80
